Time;durP1;ratioP1;P1;durP2;ratioP2;P2;SDS_P1;SDS_P2;PMS_P1;PMS_P2;Temp;Humidity;BMP_temperature;BMP_pressure;BME280_temperature;BME280_humidity;BME280_pressure;Samples;Min_cycle;Max_cycle;Signal;HPM_P1;HPM_P2
2023/07/20 00:02:05;;;;;;;11.00;9.83;;;;;;;;;;5136501;28;20921;-68
2023/07/20 00:04:34;;;;;;;11.20;9.93;;;;;;;;;;5133543;27;20562;-68
2023/07/20 00:07:01;;;;;;;11.43;10.43;;;;;;;;;;5133580;27;20439;-67
2023/07/20 00:09:28;;;;;;;12.43;11.23;;;;;;;;;;5133838;28;20439;-67
2023/07/20 00:11:55;;;;;;;15.47;11.03;;;;;;;;;;5134083;28;20424;-68
2023/07/20 00:14:23;;;;;;;13.33;11.20;;;;;;;;;;5133520;28;20925;-67
2023/07/20 00:16:55;;;;;;;13.30;11.90;;;;;;;;;;5134044;27;20453;-67
2023/07/20 00:19:23;;;;;;;11.50;10.50;;;;;;;;;;5138134;27;20415;-67
2023/07/20 00:21:51;;;;;;;14.73;11.20;;;;;;;;;;5137369;27;20453;-68
2023/07/20 00:24:19;;;;;;;13.17;11.80;;;;;;;;;;5137424;27;20528;-67
2023/07/20 00:26:46;;;;;;;12.93;11.63;;;;;;;;;;5137345;27;20444;-67
2023/07/20 00:29:13;;;;;;;12.90;10.83;;;;;;;;;;5137776;27;20450;-67
2023/07/20 00:31:40;;;;;;;12.43;10.80;;;;;;;;;;5137319;27;20443;-68
2023/07/20 00:34:07;;;;;;;12.63;11.37;;;;;;;;;;5137373;27;20436;-67
2023/07/20 00:36:35;;;;;;;15.10;11.80;;;;;;;;;;5137481;27;20459;-67
2023/07/20 00:39:03;;;;;;;12.63;11.30;;;;;;;;;;5137286;27;20438;-67
2023/07/20 00:41:31;;;;;;;12.67;11.33;;;;;;;;;;5136807;27;20438;-68
2023/07/20 00:43:58;;;;;;;13.17;11.80;;;;;;;;;;5136870;27;20979;-67
2023/07/20 00:46:26;;;;;;;12.30;11.00;;;;;;;;;;5136626;27;20469;-67
2023/07/20 00:48:53;;;;;;;12.40;11.10;;;;;;;;;;5137077;27;20458;-67
2023/07/20 00:51:21;;;;;;;12.57;11.13;;;;;;;;;;5136922;27;20441;-68
2023/07/20 00:53:48;;;;;;;13.07;11.60;;;;;;;;;;5137346;27;20438;-67
2023/07/20 00:56:17;;;;;;;13.73;11.93;;;;;;;;;;5136544;27;20447;-68
2023/07/20 00:58:45;;;;;;;11.93;10.70;;;;;;;;;;5136580;27;20447;-68
2023/07/20 01:01:12;;;;;;;11.70;10.50;;;;;;;;;;5136479;27;20481;-68
2023/07/20 01:03:39;;;;;;;15.40;11.40;;;;;;;;;;5136579;27;20439;-67
2023/07/20 01:06:11;;;;;;;17.30;11.87;;;;;;;;;;5136507;27;20476;-68
2023/07/20 01:08:41;;;;;;;13.00;11.30;;;;;;;;;;5136936;27;20431;-67
2023/07/20 01:11:15;;;;;;;13.23;11.93;;;;;;;;;;5136836;27;20447;-68
2023/07/20 01:13:44;;;;;;;12.50;11.20;;;;;;;;;;5137061;27;20430;-68
2023/07/20 01:16:12;;;;;;;12.63;11.33;;;;;;;;;;5136651;27;20443;-68
2023/07/20 01:18:39;;;;;;;14.70;11.97;;;;;;;;;;5136744;27;20446;-67
2023/07/20 01:21:08;;;;;;;13.50;11.47;;;;;;;;;;5136099;27;20534;-68
2023/07/20 01:23:56;;;;;;;13.27;11.97;;;;;;;;;;5136145;27;20436;-67
2023/07/20 01:26:30;;;;;;;12.60;11.17;;;;;;;;;;5136771;27;20462;-68
2023/07/20 01:29:05;;;;;;;12.17;11.07;;;;;;;;;;5136007;27;20446;-67
2023/07/20 01:31:35;;;;;;;13.00;11.20;;;;;;;;;;5135919;27;20437;-68
2023/07/20 01:34:03;;;;;;;11.37;10.20;;;;;;;;;;5136212;27;20481;-67
2023/07/20 01:36:32;;;;;;;12.70;11.10;;;;;;;;;;5136011;27;20457;-68
2023/07/20 01:38:59;;;;;;;12.80;11.60;;;;;;;;;;5135857;27;20531;-67
2023/07/20 01:41:27;;;;;;;18.10;11.10;;;;;;;;;;5136000;27;20434;-68
2023/07/20 01:43:54;;;;;;;12.93;11.47;;;;;;;;;;5135997;27;20502;-68
2023/07/20 01:46:21;;;;;;;13.90;11.07;;;;;;;;;;5135877;27;20566;-68
2023/07/20 01:48:51;;;;;;;14.10;11.17;;;;;;;;;;5135522;27;20440;-67
2023/07/20 01:51:18;;;;;;;12.80;11.60;;;;;;;;;;5135487;27;20542;-67
2023/07/20 01:53:45;;;;;;;12.03;10.87;;;;;;;;;;5135367;27;20917;-67
2023/07/20 01:56:13;;;;;;;13.13;11.00;;;;;;;;;;5135750;27;20464;-67
2023/07/20 01:58:40;;;;;;;13.30;11.70;;;;;;;;;;5135549;27;20478;-67
2023/07/20 02:01:07;;;;;;;12.53;11.00;;;;;;;;;;5135669;27;20523;-68
2023/07/20 02:03:35;;;;;;;11.90;10.80;;;;;;;;;;5135901;27;20435;-68
2023/07/20 02:06:04;;;;;;;12.80;11.50;;;;;;;;;;5135486;27;20509;-67
2023/07/20 02:08:31;;;;;;;17.13;11.50;;;;;;;;;;5135197;27;20459;-69
2023/07/20 02:10:58;;;;;;;14.03;12.53;;;;;;;;;;5135528;27;20488;-67
2023/07/20 02:13:25;;;;;;;13.17;11.77;;;;;;;;;;5135619;27;20438;-67
2023/07/20 02:15:52;;;;;;;14.30;12.67;;;;;;;;;;5136083;27;20451;-67
2023/07/20 02:18:19;;;;;;;21.20;14.40;;;;;;;;;;5134915;27;20446;-69
2023/07/20 02:20:47;;;;;;;19.13;14.53;;;;;;;;;;5134979;27;20916;-68
2023/07/20 02:23:16;;;;;;;16.60;14.90;;;;;;;;;;5135174;27;20442;-68
2023/07/20 02:25:44;;;;;;;16.43;14.83;;;;;;;;;;5135073;27;20474;-68
2023/07/20 02:28:13;;;;;;;14.40;13.10;;;;;;;;;;5135186;27;20454;-68
2023/07/20 02:30:41;;;;;;;13.50;12.10;;;;;;;;;;5134967;27;20813;-69
2023/07/20 02:33:08;;;;;;;11.17;10.17;;;;;;;;;;5135023;27;20447;-70
2023/07/20 02:35:36;;;;;;;11.13;10.03;;;;;;;;;;5135100;27;20538;-70
2023/07/20 02:38:03;;;;;;;10.37;9.43;;;;;;;;;;5135151;27;20451;-69
2023/07/20 02:40:31;;;;;;;10.83;9.83;;;;;;;;;;5134177;27;20854;-69
2023/07/20 02:42:59;;;;;;;11.70;10.50;;;;;;;;;;5134778;27;20440;-68
2023/07/20 02:45:26;;;;;;;11.77;10.67;;;;;;;;;;5134712;27;20481;-69
2023/07/20 02:47:53;;;;;;;12.13;10.90;;;;;;;;;;5134664;27;20797;-70
2023/07/20 02:50:20;;;;;;;12.40;11.30;;;;;;;;;;5134803;27;20466;-70
2023/07/20 02:52:47;;;;;;;13.23;11.83;;;;;;;;;;5134534;27;20441;-70
2023/07/20 02:55:15;;;;;;;15.10;13.37;;;;;;;;;;5134611;27;20436;-69
2023/07/20 02:57:44;;;;;;;18.60;14.60;;;;;;;;;;5134460;27;20444;-69
2023/07/20 03:00:14;;;;;;;15.80;13.63;;;;;;;;;;5134474;27;20490;-70
2023/07/20 03:02:41;;;;;;;15.00;13.50;;;;;;;;;;5134236;27;20487;-69
2023/07/20 03:05:09;;;;;;;15.83;14.33;;;;;;;;;;5134070;27;20449;-69
2023/07/20 03:07:37;;;;;;;16.13;14.57;;;;;;;;;;5134842;27;20441;-71
2023/07/20 03:10:04;;;;;;;18.13;14.67;;;;;;;;;;5134500;27;20440;-69
2023/07/20 03:12:33;;;;;;;19.13;15.20;;;;;;;;;;5134881;27;20442;-69
2023/07/20 03:15:02;;;;;;;19.33;14.80;;;;;;;;;;5134499;27;20539;-69
2023/07/20 03:17:29;;;;;;;14.27;12.97;;;;;;;;;;5134360;27;20518;-69
2023/07/20 03:19:56;;;;;;;14.30;12.83;;;;;;;;;;5134286;27;20824;-69
2023/07/20 03:22:24;;;;;;;14.03;12.50;;;;;;;;;;5134573;28;20551;-69
2023/07/20 03:24:52;;;;;;;13.90;12.40;;;;;;;;;;5134416;28;20525;-69
2023/07/20 03:27:19;;;;;;;13.70;12.40;;;;;;;;;;5133724;28;20482;-69
2023/07/20 03:29:46;;;;;;;12.73;11.60;;;;;;;;;;5133900;28;20969;-69
2023/07/20 03:32:15;;;;;;;12.60;11.40;;;;;;;;;;5133832;28;20455;-69
2023/07/20 03:34:44;;;;;;;13.13;11.80;;;;;;;;;;5134111;28;20446;-68
2023/07/20 03:37:11;;;;;;;14.33;12.73;;;;;;;;;;5133783;28;20546;-69
2023/07/20 03:39:38;;;;;;;12.87;11.57;;;;;;;;;;5133958;28;20468;-69
2023/07/20 03:42:06;;;;;;;14.80;13.10;;;;;;;;;;5134020;28;20443;-69
2023/07/20 03:44:33;;;;;;;13.23;12.00;;;;;;;;;;5134224;28;20527;-69
2023/07/20 03:47:00;;;;;;;13.33;11.93;;;;;;;;;;5133960;28;20807;-70
2023/07/20 03:49:29;;;;;;;17.40;13.40;;;;;;;;;;5131385;28;20444;-70
2023/07/20 03:51:56;;;;;;;15.27;13.00;;;;;;;;;;5134317;27;20453;-70
2023/07/20 03:54:23;;;;;;;14.20;12.63;;;;;;;;;;5137762;27;20440;-69
2023/07/20 03:56:50;;;;;;;13.80;12.40;;;;;;;;;;5138422;27;20455;-70
2023/07/20 03:59:17;;;;;;;13.70;12.50;;;;;;;;;;5137283;27;20477;-69
2023/07/20 04:01:44;;;;;;;14.70;13.20;;;;;;;;;;5137516;27;20445;-69
2023/07/20 04:04:12;;;;;;;15.07;13.57;;;;;;;;;;5137318;27;20447;-70
2023/07/20 04:06:40;;;;;;;22.53;17.00;;;;;;;;;;5137861;27;20479;-70
2023/07/20 04:09:07;;;;;;;20.47;17.07;;;;;;;;;;5137291;27;20443;-70
2023/07/20 04:11:34;;;;;;;19.60;16.27;;;;;;;;;;5137393;27;20434;-69
2023/07/20 04:14:02;;;;;;;22.53;19.57;;;;;;;;;;5137124;27;20440;-71
2023/07/20 04:16:29;;;;;;;23.30;20.80;;;;;;;;;;5137530;27;20446;-70
2023/07/20 04:18:56;;;;;;;25.63;22.40;;;;;;;;;;5137554;27;20439;-69
2023/07/20 04:21:24;;;;;;;26.87;22.90;;;;;;;;;;5137452;27;20447;-69
2023/07/20 04:23:52;;;;;;;25.93;21.70;;;;;;;;;;5137517;27;20451;-71
2023/07/20 04:26:19;;;;;;;23.30;20.80;;;;;;;;;;5137157;27;20836;-69
2023/07/20 04:28:47;;;;;;;23.70;21.17;;;;;;;;;;5136975;27;20446;-69
2023/07/20 04:31:15;;;;;;;24.73;22.07;;;;;;;;;;5137362;27;20451;-69
2023/07/20 04:33:42;;;;;;;24.10;20.70;;;;;;;;;;5136906;27;20448;-70
2023/07/20 04:36:09;;;;;;;25.33;20.20;;;;;;;;;;5136827;27;20437;-74
2023/07/20 04:38:36;;;;;;;23.37;20.40;;;;;;;;;;5137239;27;20436;-65
2023/07/20 04:41:05;;;;;;;23.03;20.50;;;;;;;;;;5137096;27;20439;-66
2023/07/20 04:43:32;;;;;;;21.03;18.60;;;;;;;;;;5137054;27;20430;-65
2023/07/20 04:45:59;;;;;;;21.60;19.30;;;;;;;;;;5136934;27;20475;-65
2023/07/20 04:48:26;;;;;;;20.47;18.10;;;;;;;;;;5137010;27;20542;-65
2023/07/20 04:50:53;;;;;;;22.23;19.40;;;;;;;;;;5136821;27;20439;-65
2023/07/20 04:53:20;;;;;;;20.17;17.97;;;;;;;;;;5137121;27;20435;-65
2023/07/20 04:55:51;;;;;;;17.57;15.67;;;;;;;;;;5136378;27;20456;-66
2023/07/20 04:58:20;;;;;;;19.10;17.00;;;;;;;;;;5136240;27;20448;-66
2023/07/20 05:00:47;;;;;;;18.30;16.50;;;;;;;;;;5137046;27;20471;-65
2023/07/20 05:03:16;;;;;;;21.20;17.47;;;;;;;;;;5135749;27;20472;-65
2023/07/20 05:05:43;;;;;;;18.40;16.60;;;;;;;;;;5135901;27;20475;-65
2023/07/20 05:08:10;;;;;;;16.33;14.70;;;;;;;;;;5136459;27;20440;-66
2023/07/20 05:10:37;;;;;;;16.73;15.03;;;;;;;;;;5136646;27;20442;-65
2023/07/20 05:13:04;;;;;;;15.07;13.67;;;;;;;;;;5136879;27;20435;-65
2023/07/20 05:15:34;;;;;;;16.73;15.10;;;;;;;;;;5135995;27;20447;-65
2023/07/20 05:18:02;;;;;;;15.60;14.10;;;;;;;;;;5136505;27;20537;-65
2023/07/20 05:20:29;;;;;;;15.13;13.63;;;;;;;;;;5136097;27;20784;-65
2023/07/20 05:22:56;;;;;;;14.37;12.97;;;;;;;;;;5136205;27;20551;-65
2023/07/20 05:25:23;;;;;;;14.13;12.80;;;;;;;;;;5136546;27;20532;-64
2023/07/20 05:27:51;;;;;;;14.47;13.17;;;;;;;;;;5135931;27;20987;-65
2023/07/20 05:30:18;;;;;;;12.70;11.50;;;;;;;;;;5135678;27;20437;-65
2023/07/20 05:32:50;;;;;;;12.37;11.23;;;;;;;;;;5135862;27;20447;-65
2023/07/20 05:35:18;;;;;;;13.00;11.70;;;;;;;;;;5135873;27;20430;-66
2023/07/20 05:37:45;;;;;;;12.70;11.60;;;;;;;;;;5136100;27;20431;-65
2023/07/20 05:40:13;;;;;;;13.57;12.20;;;;;;;;;;5136373;27;20454;-66
2023/07/20 05:42:40;;;;;;;11.80;10.50;;;;;;;;;;5135636;27;20447;-66
2023/07/20 05:45:08;;;;;;;10.27;9.27;;;;;;;;;;5136088;27;20439;-66
2023/07/20 05:47:35;;;;;;;11.60;10.50;;;;;;;;;;5135404;27;20472;-65
2023/07/20 05:50:03;;;;;;;11.83;10.73;;;;;;;;;;5135684;27;20443;-65
2023/07/20 05:52:31;;;;;;;11.10;10.00;;;;;;;;;;5136239;27;20855;-65
2023/07/20 05:54:58;;;;;;;13.40;10.30;;;;;;;;;;5135586;27;20806;-66
2023/07/20 05:57:25;;;;;;;12.00;10.83;;;;;;;;;;5135706;27;20444;-65
2023/07/20 05:59:52;;;;;;;11.67;10.43;;;;;;;;;;5135444;27;20495;-65
2023/07/20 06:02:20;;;;;;;12.33;11.13;;;;;;;;;;5135541;27;20440;-67
2023/07/20 06:04:47;;;;;;;13.40;12.03;;;;;;;;;;5135631;27;20447;-65
2023/07/20 06:07:15;;;;;;;12.57;11.23;;;;;;;;;;5135356;27;20853;-65
2023/07/20 06:09:43;;;;;;;12.60;11.50;;;;;;;;;;5135566;27;20534;-65
2023/07/20 06:12:10;;;;;;;10.93;10.03;;;;;;;;;;5135149;27;20531;-65
2023/07/20 06:14:38;;;;;;;9.33;8.53;;;;;;;;;;5135279;27;20434;-64
2023/07/20 06:17:05;;;;;;;9.27;8.47;;;;;;;;;;5135409;27;20480;-64
2023/07/20 06:19:32;;;;;;;9.03;8.30;;;;;;;;;;5135280;27;20439;-64
2023/07/20 06:22:00;;;;;;;6.97;6.40;;;;;;;;;;5135341;27;20449;-64
2023/07/20 06:24:28;;;;;;;7.13;6.53;;;;;;;;;;5135473;27;20440;-64
2023/07/20 06:26:55;;;;;;;7.33;6.77;;;;;;;;;;5134764;27;20470;-64
2023/07/20 06:29:22;;;;;;;6.40;5.83;;;;;;;;;;5134727;27;20471;-66
2023/07/20 06:31:50;;;;;;;6.70;6.10;;;;;;;;;;5135095;27;20538;-65
2023/07/20 06:34:17;;;;;;;5.97;5.47;;;;;;;;;;5135427;27;20450;-65
2023/07/20 06:36:44;;;;;;;6.97;6.23;;;;;;;;;;5135351;27;20445;-64
2023/07/20 06:39:11;;;;;;;6.00;5.50;;;;;;;;;;5135004;27;20443;-65
2023/07/20 06:41:40;;;;;;;6.23;5.70;;;;;;;;;;5135025;27;20792;-65
2023/07/20 06:44:07;;;;;;;5.90;5.40;;;;;;;;;;5135159;27;20810;-65
2023/07/20 06:46:35;;;;;;;6.43;5.37;;;;;;;;;;5134376;27;21001;-64
2023/07/20 06:49:02;;;;;;;4.70;4.30;;;;;;;;;;5134491;27;20457;-64
2023/07/20 06:51:29;;;;;;;5.10;4.70;;;;;;;;;;5134713;27;20498;-64
2023/07/20 06:53:56;;;;;;;5.00;4.60;;;;;;;;;;5135195;27;20514;-65
2023/07/20 06:56:23;;;;;;;5.03;4.57;;;;;;;;;;5134140;27;20440;-65
2023/07/20 06:58:52;;;;;;;4.60;4.20;;;;;;;;;;5134347;27;20444;-65
2023/07/20 07:01:20;;;;;;;4.70;4.30;;;;;;;;;;5134294;27;20933;-65
2023/07/20 07:03:48;;;;;;;4.53;4.13;;;;;;;;;;5134610;27;20453;-65
2023/07/20 07:06:15;;;;;;;5.43;5.00;;;;;;;;;;5134198;27;20450;-65
2023/07/20 07:08:44;;;;;;;4.93;4.47;;;;;;;;;;5134407;27;20478;-64
2023/07/20 07:11:11;;;;;;;5.20;4.80;;;;;;;;;;5134543;27;20471;-65
2023/07/20 07:13:38;;;;;;;4.13;3.83;;;;;;;;;;5134535;27;20534;-65
2023/07/20 07:16:07;;;;;;;4.80;3.97;;;;;;;;;;5134366;27;20432;-65
2023/07/20 07:18:34;;;;;;;10.50;3.77;;;;;;;;;;5134083;27;20459;-64
2023/07/20 07:21:02;;;;;;;3.40;3.20;;;;;;;;;;5134307;27;20439;-65
2023/07/20 07:23:29;;;;;;;3.50;3.20;;;;;;;;;;5134454;27;20453;-64
2023/07/20 07:25:56;;;;;;;3.23;2.90;;;;;;;;;;5134437;28;20450;-64
2023/07/20 07:28:23;;;;;;;3.70;3.40;;;;;;;;;;5133443;27;20487;-66
2023/07/20 07:30:50;;;;;;;3.57;3.27;;;;;;;;;;5134359;28;20443;-64
2023/07/20 07:33:19;;;;;;;3.70;2.83;;;;;;;;;;5133848;28;20435;-65
2023/07/20 07:35:46;;;;;;;4.07;3.10;;;;;;;;;;5134230;28;20447;-65
2023/07/20 07:38:13;;;;;;;4.07;2.70;;;;;;;;;;5133749;28;20449;-65
2023/07/20 07:40:41;;;;;;;3.20;2.90;;;;;;;;;;5134297;28;20440;-65
2023/07/20 07:43:10;;;;;;;2.80;2.60;;;;;;;;;;5134232;28;20541;-65
2023/07/20 07:45:37;;;;;;;2.37;2.17;;;;;;;;;;5133828;28;20983;-64
2023/07/20 07:48:05;;;;;;;1.93;1.83;;;;;;;;;;5134038;28;20503;-65
2023/07/20 07:50:33;;;;;;;2.80;2.20;;;;;;;;;;5134326;28;20451;-65
2023/07/20 07:53:01;;;;;;;4.30;2.10;;;;;;;;;;5133636;28;20448;-65
2023/07/20 07:55:28;;;;;;;3.03;1.90;;;;;;;;;;5134202;28;20444;-67
2023/07/20 07:57:55;;;;;;;3.17;1.67;;;;;;;;;;5134021;28;20526;-65
2023/07/20 08:00:22;;;;;;;2.63;1.73;;;;;;;;;;5134069;28;20465;-65
2023/07/20 08:02:52;;;;;;;8.40;1.87;;;;;;;;;;5133913;28;20847;-64
2023/07/20 08:05:19;;;;;;;1.70;1.60;;;;;;;;;;5133940;28;20449;-65
2023/07/20 08:07:48;;;;;;;1.90;1.53;;;;;;;;;;5133993;28;20483;-65
2023/07/20 08:10:15;;;;;;;3.47;1.70;;;;;;;;;;5133911;28;20435;-65
2023/07/20 08:12:43;;;;;;;2.40;1.90;;;;;;;;;;5133916;28;20766;-65
2023/07/20 08:15:12;;;;;;;2.00;1.80;;;;;;;;;;5134115;28;20465;-65
2023/07/20 08:17:39;;;;;;;1.67;1.57;;;;;;;;;;5133999;28;20435;-65
2023/07/20 08:20:08;;;;;;;2.30;2.20;;;;;;;;;;5134063;28;20459;-65
2023/07/20 08:22:35;;;;;;;3.73;1.93;;;;;;;;;;5133694;28;20844;-65
2023/07/20 08:25:04;;;;;;;2.30;1.80;;;;;;;;;;5133830;28;20441;-65
2023/07/20 08:27:31;;;;;;;1.87;1.77;;;;;;;;;;5133568;28;20477;-64
2023/07/20 08:29:58;;;;;;;1.87;1.77;;;;;;;;;;5133361;28;20458;-64
2023/07/20 08:32:25;;;;;;;2.03;1.93;;;;;;;;;;5132928;28;20448;-65
2023/07/20 08:34:53;;;;;;;2.03;1.90;;;;;;;;;;5133284;28;20548;-65
2023/07/20 08:37:21;;;;;;;2.07;1.87;;;;;;;;;;5133583;28;20820;-65
2023/07/20 08:39:48;;;;;;;3.60;1.87;;;;;;;;;;5135386;27;20436;-65
2023/07/20 08:42:17;;;;;;;2.10;2.00;;;;;;;;;;5136961;27;20445;-66
2023/07/20 08:44:45;;;;;;;1.97;1.63;;;;;;;;;;5137183;27;20778;-65
2023/07/20 08:47:13;;;;;;;1.90;1.40;;;;;;;;;;5136687;27;20455;-65
2023/07/20 08:49:41;;;;;;;1.27;1.17;;;;;;;;;;5137371;27;20446;-65
2023/07/20 08:52:08;;;;;;;1.33;1.23;;;;;;;;;;5137031;27;20444;-65
2023/07/20 08:54:41;;;;;;;1.70;1.60;;;;;;;;;;5136986;27;20441;-65
2023/07/20 08:57:08;;;;;;;2.10;2.00;;;;;;;;;;5137129;27;20447;-65
2023/07/20 08:59:38;;;;;;;2.00;1.90;;;;;;;;;;5136453;27;20476;-65
2023/07/20 09:02:06;;;;;;;1.80;1.70;;;;;;;;;;5136832;27;20798;-65
2023/07/20 09:04:33;;;;;;;2.53;2.20;;;;;;;;;;5136707;27;20432;-65
2023/07/20 09:07:01;;;;;;;1.70;1.60;;;;;;;;;;5137393;27;20444;-65
2023/07/20 09:09:28;;;;;;;3.37;2.00;;;;;;;;;;5136687;27;20469;-65
2023/07/20 09:11:55;;;;;;;2.13;1.93;;;;;;;;;;5136558;27;20808;-65
2023/07/20 09:14:24;;;;;;;2.50;2.10;;;;;;;;;;5136544;27;20452;-65
2023/07/20 09:16:54;;;;;;;1.60;1.50;;;;;;;;;;5136588;27;20481;-65
2023/07/20 09:19:21;;;;;;;1.60;1.50;;;;;;;;;;5136690;27;20479;-65
2023/07/20 09:21:49;;;;;;;1.73;1.63;;;;;;;;;;5136472;27;20437;-65
2023/07/20 09:24:19;;;;;;;2.90;1.63;;;;;;;;;;5136103;27;20445;-65
2023/07/20 09:26:48;;;;;;;2.10;1.80;;;;;;;;;;5136395;27;20519;-65
2023/07/20 09:29:15;;;;;;;2.40;1.70;;;;;;;;;;5135915;27;20537;-65
2023/07/20 09:31:43;;;;;;;1.70;1.60;;;;;;;;;;5136334;27;20598;-65
2023/07/20 09:34:11;;;;;;;1.80;1.70;;;;;;;;;;5136236;27;20810;-65
2023/07/20 09:36:38;;;;;;;1.80;1.70;;;;;;;;;;5136177;27;20441;-65
2023/07/20 09:39:06;;;;;;;1.80;1.70;;;;;;;;;;5136323;27;20525;-65
2023/07/20 09:41:42;;;;;;;1.77;1.67;;;;;;;;;;5136154;27;20782;-65
2023/07/20 09:44:10;;;;;;;1.73;1.60;;;;;;;;;;5135746;27;20913;-65
2023/07/20 09:46:45;;;;;;;2.67;1.60;;;;;;;;;;5136260;27;20466;-65
2023/07/20 09:49:13;;;;;;;10.53;1.70;;;;;;;;;;5136047;27;20480;-65
2023/07/20 09:51:42;;;;;;;1.50;1.40;;;;;;;;;;5135572;27;20461;-65
2023/07/20 09:54:09;;;;;;;1.40;1.30;;;;;;;;;;5135807;27;20450;-64
2023/07/20 09:56:37;;;;;;;1.80;1.70;;;;;;;;;;5135815;27;20436;-65
2023/07/20 09:59:04;;;;;;;1.80;1.40;;;;;;;;;;5135604;27;20472;-65
2023/07/20 10:01:31;;;;;;;2.73;1.40;;;;;;;;;;5135928;27;20444;-65
2023/07/20 10:04:01;;;;;;;1.30;1.20;;;;;;;;;;5135570;27;20445;-65
2023/07/20 10:06:31;;;;;;;1.70;1.40;;;;;;;;;;5136415;27;20448;-65
2023/07/20 10:09:02;;;;;;;1.77;1.23;;;;;;;;;;5135455;27;20564;-65
2023/07/20 10:11:31;;;;;;;1.13;1.03;;;;;;;;;;5136098;27;20457;-65
2023/07/20 10:14:00;;;;;;;2.73;1.30;;;;;;;;;;5135478;27;20443;-64
2023/07/20 10:16:29;;;;;;;1.70;1.60;;;;;;;;;;5135383;27;20437;-65
2023/07/20 10:19:01;;;;;;;1.50;1.40;;;;;;;;;;5135780;27;20452;-65
2023/07/20 10:21:30;;;;;;;2.50;1.57;;;;;;;;;;5135385;27;20430;-65
2023/07/20 10:23:59;;;;;;;1.60;1.50;;;;;;;;;;5135214;27;20801;-65
2023/07/20 10:26:26;;;;;;;1.67;1.57;;;;;;;;;;5134943;27;20438;-65
2023/07/20 10:28:54;;;;;;;1.50;1.40;;;;;;;;;;5135067;27;20485;-65
2023/07/20 10:31:22;;;;;;;1.30;1.20;;;;;;;;;;5135183;27;20473;-65
2023/07/20 10:33:50;;;;;;;3.00;1.40;;;;;;;;;;5134904;27;20516;-65
2023/07/20 10:36:17;;;;;;;1.40;1.17;;;;;;;;;;5135409;27;20532;-64
2023/07/20 10:38:55;;;;;;;1.60;1.50;;;;;;;;;;5134582;27;20433;-65
2023/07/20 10:41:24;;;;;;;2.17;1.30;;;;;;;;;;5135634;27;20436;-65
2023/07/20 10:43:52;;;;;;;2.80;1.27;;;;;;;;;;5135351;27;20839;-65
2023/07/20 10:46:34;;;;;;;2.60;1.23;;;;;;;;;;5134591;27;20934;-65
2023/07/20 10:49:02;;;;;;;2.60;1.30;;;;;;;;;;5135224;27;20552;-65
2023/07/20 10:51:29;;;;;;;3.00;1.37;;;;;;;;;;5134381;27;20438;-65
2023/07/20 10:53:58;;;;;;;2.83;1.40;;;;;;;;;;5134460;27;20530;-65
2023/07/20 10:56:29;;;;;;;1.33;1.23;;;;;;;;;;5134233;27;20444;-65
2023/07/20 10:58:59;;;;;;;1.43;1.33;;;;;;;;;;5134374;27;20536;-65
2023/07/20 11:01:30;;;;;;;1.30;1.20;;;;;;;;;;5134321;27;20430;-65
2023/07/20 11:04:00;;;;;;;1.40;1.30;;;;;;;;;;5135415;27;20429;-64
2023/07/20 11:06:34;;;;;;;1.20;1.10;;;;;;;;;;5134550;27;20440;-64
2023/07/20 11:09:07;;;;;;;1.37;1.27;;;;;;;;;;5135090;27;20477;-65
2023/07/20 11:11:35;;;;;;;2.17;1.30;;;;;;;;;;5134200;27;20445;-65
2023/07/20 11:14:03;;;;;;;1.80;1.37;;;;;;;;;;5134161;27;21077;-65
2023/07/20 11:16:34;;;;;;;1.47;1.37;;;;;;;;;;5134172;27;20934;-65
2023/07/20 11:19:02;;;;;;;1.40;1.30;;;;;;;;;;5134545;27;20438;-65
2023/07/20 11:21:29;;;;;;;1.33;1.23;;;;;;;;;;5133992;27;20433;-64
2023/07/20 11:23:57;;;;;;;2.73;1.40;;;;;;;;;;5134349;27;20982;-64
2023/07/20 11:26:25;;;;;;;1.97;1.20;;;;;;;;;;5134214;28;20451;-64
2023/07/20 11:28:53;;;;;;;1.30;1.20;;;;;;;;;;5134395;28;20482;-65
2023/07/20 11:31:20;;;;;;;1.27;1.17;;;;;;;;;;5134115;28;20434;-65
2023/07/20 11:33:48;;;;;;;3.23;1.20;;;;;;;;;;5134267;28;20444;-67
2023/07/20 11:36:15;;;;;;;1.37;1.07;;;;;;;;;;5134253;28;20479;-68
2023/07/20 11:38:44;;;;;;;1.20;1.10;;;;;;;;;;5134195;28;20450;-68
2023/07/20 11:41:11;;;;;;;1.53;1.20;;;;;;;;;;5134274;28;20430;-65
2023/07/20 11:43:40;;;;;;;1.20;1.10;;;;;;;;;;5134124;28;20541;-69
2023/07/20 11:46:07;;;;;;;1.63;1.30;;;;;;;;;;5134012;28;20439;-68
2023/07/20 11:48:35;;;;;;;1.20;1.10;;;;;;;;;;5133976;28;20483;-69
2023/07/20 11:51:02;;;;;;;1.90;1.20;;;;;;;;;;5133622;28;20865;-69
2023/07/20 11:53:29;;;;;;;2.00;1.27;;;;;;;;;;5133679;27;20949;-68
2023/07/20 11:55:57;;;;;;;1.37;1.27;;;;;;;;;;5133963;27;20816;-68
2023/07/20 11:58:24;;;;;;;1.57;1.10;;;;;;;;;;5133157;27;20453;-69
2023/07/20 12:00:53;;;;;;;1.57;1.40;;;;;;;;;;5133334;28;20977;-68
2023/07/20 12:03:20;;;;;;;1.30;1.20;;;;;;;;;;5134015;28;20436;-68
2023/07/20 12:05:47;;;;;;;2.00;1.20;;;;;;;;;;5133647;28;20448;-69
2023/07/20 12:08:14;;;;;;;1.57;1.47;;;;;;;;;;5133767;28;20529;-69
2023/07/20 12:10:43;;;;;;;3.30;1.40;;;;;;;;;;5133654;28;20528;-69
2023/07/20 12:13:12;;;;;;;4.17;1.40;;;;;;;;;;5134875;27;20442;-69
2023/07/20 12:15:39;;;;;;;1.57;1.27;;;;;;;;;;5137636;27;20475;-68
2023/07/20 12:18:08;;;;;;;3.00;1.50;;;;;;;;;;5137322;27;20440;-68
2023/07/20 12:20:36;;;;;;;1.20;1.10;;;;;;;;;;5137233;27;20496;-69
2023/07/20 12:23:04;;;;;;;1.30;1.20;;;;;;;;;;5137307;27;20438;-68
2023/07/20 12:25:41;;;;;;;1.30;1.20;;;;;;;;;;5136912;27;20455;-69
2023/07/20 12:28:09;;;;;;;1.30;1.20;;;;;;;;;;5136870;27;20853;-69
2023/07/20 12:30:36;;;;;;;1.60;1.50;;;;;;;;;;5136908;27;20445;-68
2023/07/20 12:33:04;;;;;;;1.20;1.10;;;;;;;;;;5136909;27;20444;-69
2023/07/20 12:35:33;;;;;;;1.67;1.40;;;;;;;;;;5137150;27;20976;-69
2023/07/20 12:38:00;;;;;;;1.37;1.27;;;;;;;;;;5137039;27;20449;-69
2023/07/20 12:40:28;;;;;;;1.30;1.20;;;;;;;;;;5137042;27;20528;-69
2023/07/20 12:42:55;;;;;;;1.30;1.20;;;;;;;;;;5137088;27;20482;-66
2023/07/20 12:45:22;;;;;;;1.37;1.10;;;;;;;;;;5136938;27;20448;-66
2023/07/20 12:47:50;;;;;;;1.33;1.23;;;;;;;;;;5137179;27;20783;-66
2023/07/20 12:50:17;;;;;;;1.60;1.50;;;;;;;;;;5136978;27;20471;-67
2023/07/20 12:52:45;;;;;;;1.20;1.10;;;;;;;;;;5136598;27;20450;-67
2023/07/20 12:55:13;;;;;;;1.40;1.30;;;;;;;;;;5137103;27;20435;-67
2023/07/20 12:57:40;;;;;;;1.40;1.30;;;;;;;;;;5136385;27;20444;-67
2023/07/20 13:00:08;;;;;;;1.20;1.10;;;;;;;;;;5136903;27;20493;-67
2023/07/20 13:02:36;;;;;;;1.10;1.00;;;;;;;;;;5136912;27;20442;-66
2023/07/20 13:05:03;;;;;;;1.70;1.50;;;;;;;;;;5136813;27;20433;-66
2023/07/20 13:07:32;;;;;;;1.73;1.07;;;;;;;;;;5136829;27;20496;-66
2023/07/20 13:10:01;;;;;;;1.30;1.20;;;;;;;;;;5136500;27;20864;-66
2023/07/20 13:12:28;;;;;;;1.40;1.30;;;;;;;;;;5136744;27;20439;-66
2023/07/20 13:14:56;;;;;;;2.03;1.17;;;;;;;;;;5136490;27;20450;-66
2023/07/20 13:17:23;;;;;;;4.30;1.20;;;;;;;;;;5136788;27;20444;-66
2023/07/20 13:19:50;;;;;;;1.57;1.30;;;;;;;;;;5136300;27;20447;-66
2023/07/20 13:22:18;;;;;;;1.33;1.23;;;;;;;;;;5136528;27;20808;-66
2023/07/20 13:24:46;;;;;;;2.30;1.20;;;;;;;;;;5135538;27;20528;-66
2023/07/20 13:27:15;;;;;;;1.83;1.27;;;;;;;;;;5136406;27;20440;-66
2023/07/20 13:29:42;;;;;;;1.10;1.00;;;;;;;;;;5135525;27;21014;-66
2023/07/20 13:32:09;;;;;;;2.60;1.50;;;;;;;;;;5135804;27;20453;-66
2023/07/20 13:34:37;;;;;;;2.30;1.00;;;;;;;;;;5136452;27;20432;-66
2023/07/20 13:37:04;;;;;;;1.50;1.40;;;;;;;;;;5135649;27;20438;-66
2023/07/20 13:39:31;;;;;;;1.43;1.33;;;;;;;;;;5136074;27;20436;-66
2023/07/20 13:41:58;;;;;;;1.20;1.10;;;;;;;;;;5135837;27;20441;-67
2023/07/20 13:44:27;;;;;;;1.20;1.10;;;;;;;;;;5135706;27;20441;-66
2023/07/20 13:46:54;;;;;;;1.10;1.00;;;;;;;;;;5136087;27;20530;-66
2023/07/20 13:49:21;;;;;;;1.10;1.00;;;;;;;;;;5135509;27;20484;-66
2023/07/20 13:51:48;;;;;;;1.20;1.10;;;;;;;;;;5135630;27;20444;-67
2023/07/20 13:54:16;;;;;;;1.47;1.07;;;;;;;;;;5135936;27;20440;-66
2023/07/20 13:56:43;;;;;;;1.30;1.20;;;;;;;;;;5135623;27;20452;-66
2023/07/20 13:59:10;;;;;;;1.10;0.97;;;;;;;;;;5135036;27;20472;-66
2023/07/20 14:01:39;;;;;;;1.30;1.20;;;;;;;;;;5135238;27;20427;-66
2023/07/20 14:04:06;;;;;;;1.30;1.20;;;;;;;;;;5135554;27;20442;-66
2023/07/20 14:06:34;;;;;;;3.90;1.50;;;;;;;;;;5135553;27;20460;-66
2023/07/20 14:09:02;;;;;;;1.63;1.47;;;;;;;;;;5135344;27;20567;-66
2023/07/20 14:11:30;;;;;;;1.90;1.60;;;;;;;;;;5135444;27;20462;-66
2023/07/20 14:13:58;;;;;;;2.47;1.40;;;;;;;;;;5135138;27;20439;-66
2023/07/20 14:16:25;;;;;;;1.33;1.00;;;;;;;;;;5135374;27;20444;-66
2023/07/20 14:18:54;;;;;;;1.67;1.10;;;;;;;;;;5135147;27;20518;-66
2023/07/20 14:21:22;;;;;;;2.57;1.40;;;;;;;;;;5134879;27;20449;-65
2023/07/20 14:23:50;;;;;;;2.67;1.30;;;;;;;;;;5134642;27;20997;-66
2023/07/20 14:26:17;;;;;;;1.53;1.30;;;;;;;;;;5135345;27;20442;-66
2023/07/20 14:28:44;;;;;;;1.40;1.30;;;;;;;;;;5134852;27;20478;-67
2023/07/20 14:31:11;;;;;;;2.80;1.43;;;;;;;;;;5135225;27;20444;-67
2023/07/20 14:33:39;;;;;;;2.63;1.43;;;;;;;;;;5134625;27;20451;-66
2023/07/20 14:36:07;;;;;;;2.27;1.37;;;;;;;;;;5134682;27;20476;-66